Time;durP1;ratioP1;P1;durP2;ratioP2;P2;SDS_P1;SDS_P2;PMS_P1;PMS_P2;Temp;Humidity;BMP_temperature;BMP_pressure;BME280_temperature;BME280_humidity;BME280_pressure;Samples;Min_cycle;Max_cycle;Signal;HPM_P1;HPM_P2
2022/06/24 00:01:39;;;;;;;182.37;176.10;;;20.70;99.90;;;;;;4982759;28;20534;-82
2022/06/24 00:04:06;;;;;;;153.43;147.47;;;20.70;99.90;;;;;;4999169;28;20465;-82
2022/06/24 00:06:44;;;;;;;172.07;166.33;;;20.80;99.90;;;;;;4997348;28;20463;-82
2022/06/24 00:09:13;;;;;;;102.73;98.67;;;20.80;99.90;;;;;;4979351;28;20462;-82
2022/06/24 00:11:40;;;;;;;121.00;116.10;;;20.80;98.80;;;;;;4982139;28;20989;-82
2022/06/24 00:14:10;;;;;;;130.63;125.40;;;20.80;98.50;;;;;;4999376;28;20454;-83
2022/06/24 00:16:57;;;;;;;125.03;120.53;;;20.80;97.90;;;;;;4997875;28;20465;-83
2022/06/24 00:19:25;;;;;;;112.33;108.27;;;20.80;97.40;;;;;;4978186;28;20472;-82
2022/06/24 00:22:05;;;;;;;107.20;102.77;;;20.80;97.20;;;;;;4981241;28;20483;-82
2022/06/24 00:24:33;;;;;;;110.53;106.63;;;20.80;97.20;;;;;;4999653;28;20469;-82
2022/06/24 00:27:00;;;;;;;87.83;84.47;;;20.80;97.10;;;;;;4995118;28;20832;-82
2022/06/24 00:29:30;;;;;;;102.60;98.57;;;20.90;97.00;;;;;;4978359;28;20981;-82
2022/06/24 00:32:01;;;;;;;75.93;72.70;;;20.90;97.00;;;;;;4991392;28;20470;-82
2022/06/24 00:34:28;;;;;;;106.50;102.50;;;20.90;96.60;;;;;;4999095;28;20466;-82
2022/06/24 00:36:55;;;;;;;274.20;263.97;;;21.00;98.60;;;;;;4987228;28;20965;-82
2022/06/24 00:39:32;;;;;;;315.47;304.67;;;20.90;99.90;;;;;;4978407;28;20606;-81
2022/06/24 00:42:00;;;;;;;476.13;453.97;;;20.70;99.90;;;;;;4989654;28;20544;-82
2022/06/24 00:44:43;;;;;;;458.10;435.27;;;20.20;99.90;;;;;;4998881;28;20484;-81
2022/06/24 00:47:12;;;;;;;508.47;480.50;;;20.00;99.90;;;;;;4986185;28;20464;-83
2022/06/24 00:49:39;;;;;;;723.70;674.03;;;19.80;99.90;;;;;;4978944;28;20453;-84
2022/06/24 00:52:08;;;;;;;807.27;747.77;;;19.70;99.90;;;;;;4990691;28;20993;-82
2022/06/24 00:54:35;;;;;;;852.00;785.27;;;19.60;99.90;;;;;;4999022;28;20456;-83
2022/06/24 00:57:02;;;;;;;895.33;820.17;;;19.60;99.90;;;;;;4988172;28;20465;-82
2022/06/24 00:59:34;;;;;;;904.50;830.37;;;19.70;99.90;;;;;;4978447;28;20461;-83
2022/06/24 01:02:04;;;;;;;860.53;789.43;;;19.60;99.90;;;;;;4997826;28;20538;-82
2022/06/24 01:04:32;;;;;;;897.13;818.57;;;19.60;99.90;;;;;;4999071;28;20483;-83
2022/06/24 01:06:59;;;;;;;901.97;822.63;;;19.60;99.90;;;;;;4979714;28;20462;-84
2022/06/24 01:09:27;;;;;;;904.30;824.27;;;19.60;99.90;;;;;;4979616;28;20457;-81
2022/06/24 01:11:54;;;;;;;899.13;819.10;;;19.60;99.90;;;;;;4997333;28;20480;-84
2022/06/24 01:14:21;;;;;;;883.30;804.50;;;19.60;99.90;;;;;;4997947;28;20465;-83
2022/06/24 01:16:50;;;;;;;865.23;789.33;;;19.50;99.90;;;;;;4979246;28;20454;-83
2022/06/24 01:19:17;;;;;;;884.33;806.87;;;19.50;99.90;;;;;;4977558;28;20465;-84
2022/06/24 01:21:46;;;;;;;881.43;804.67;;;19.40;99.90;;;;;;4997447;28;20495;-83
2022/06/24 01:24:15;;;;;;;867.67;792.87;;;19.40;99.90;;;;;;4998202;28;20531;-83
2022/06/24 01:26:44;;;;;;;856.40;779.43;;;19.30;99.90;;;;;;4979935;28;20500;-83
2022/06/24 01:29:12;;;;;;;882.20;804.17;;;19.20;99.90;;;;;;4985529;28;20489;-83
2022/06/24 01:31:40;;;;;;;849.73;775.30;;;19.20;99.90;;;;;;4997814;28;20499;-84
2022/06/24 01:34:07;;;;;;;810.73;739.63;;;19.20;99.90;;;;;;4996221;28;20462;-84
2022/06/24 01:36:34;;;;;;;825.30;752.17;;;19.00;99.90;;;;;;4996043;28;20486;-82
2022/06/24 01:39:02;;;;;;;822.43;751.97;;;19.00;99.90;;;;;;4997340;28;20461;-83
2022/06/24 01:41:29;;;;;;;845.03;772.40;;;19.00;99.90;;;;;;4997468;28;21022;-84
2022/06/24 01:43:56;;;;;;;842.10;768.37;;;18.90;99.90;;;;;;4991038;28;20519;-83
2022/06/24 01:46:23;;;;;;;837.70;764.10;;;18.90;99.90;;;;;;4978496;28;20459;-83
2022/06/24 01:48:50;;;;;;;861.97;788.70;;;18.80;99.90;;;;;;4978172;28;20491;-83
2022/06/24 01:51:19;;;;;;;820.20;747.17;;;18.80;99.90;;;;;;4979170;28;20479;-83
2022/06/24 01:53:46;;;;;;;839.67;763.77;;;18.80;99.90;;;;;;4981466;28;20458;-84
2022/06/24 01:56:14;;;;;;;859.33;781.63;;;18.80;99.90;;;;;;4981066;28;20468;-85
2022/06/24 01:58:41;;;;;;;862.43;784.80;;;18.70;99.90;;;;;;4997458;28;20991;-84
2022/06/24 02:01:08;;;;;;;864.37;787.27;;;18.80;99.90;;;;;;4997815;28;20487;-84
2022/06/24 02:03:35;;;;;;;862.47;784.60;;;18.80;99.90;;;;;;4995434;28;20466;-84
2022/06/24 02:06:04;;;;;;;870.30;792.53;;;18.90;99.90;;;;;;4979046;28;20460;-83
2022/06/24 02:08:31;;;;;;;864.30;787.60;;;18.70;99.90;;;;;;4977887;28;20449;-84
2022/06/24 02:13:45;;;;;;;863.43;787.27;;;18.80;99.90;;;;;;4980154;28;20498;-84
2022/06/24 02:16:12;;;;;;;884.57;806.97;;;18.80;99.90;;;;;;4998317;28;20446;-83
2022/06/24 02:18:38;;;;;;;859.20;783.10;;;18.70;99.90;;;;;;4996976;28;20668;-84
2022/06/24 02:21:05;;;;;;;864.43;787.70;;;18.70;99.90;;;;;;4959157;29;20866;-84
2022/06/24 02:23:56;;;;;;;856.03;779.57;;;18.70;99.90;;;;;;4959587;29;20463;-83
2022/06/24 02:26:25;;;;;;;858.93;781.73;;;18.70;99.90;;;;;;4949820;28;20463;-83
2022/06/24 02:28:54;;;;;;;861.93;785.30;;;18.70;99.90;;;;;;4994220;28;20447;-82
2022/06/24 02:31:21;;;;;;;867.10;789.07;;;18.70;99.90;;;;;;4996155;28;20478;-83
2022/06/24 02:33:48;;;;;;;859.57;781.27;;;18.70;99.90;;;;;;4996632;28;20471;-84
2022/06/24 02:36:15;;;;;;;853.37;775.30;;;18.70;99.90;;;;;;4997666;28;20460;-83
2022/06/24 02:38:42;;;;;;;848.97;770.97;;;18.70;99.90;;;;;;4994608;28;20465;-84
2022/06/24 02:58:59;;;;;;;;;;;;;;;;;;;;;
2022/06/24 03:08:53;;;;;;;831.77;758.20;;;18.70;99.90;;;;;;4938710;29;20453;-86
2022/06/24 03:35:28;;;;;;;798.60;720.60;;;18.80;99.90;;;;;;4893107;29;20825;-84
2022/06/24 03:37:55;;;;;;;794.40;717.37;;;18.80;99.90;;;;;;4919479;29;20993;-82
2022/06/24 03:40:33;;;;;;;800.33;723.23;;;18.80;99.90;;;;;;4930544;29;20451;-83
2022/06/24 03:43:02;;;;;;;780.33;703.27;;;18.80;99.90;;;;;;4924672;29;20447;-83
2022/06/24 03:45:34;;;;;;;769.53;693.43;;;18.80;99.90;;;;;;4925715;29;20542;-83
2022/06/24 03:48:01;;;;;;;773.70;697.97;;;18.80;99.90;;;;;;4929805;29;21100;-83
2022/06/24 03:50:34;;;;;;;768.73;692.83;;;18.90;99.90;;;;;;4998309;28;20524;-83
2022/06/24 03:53:06;;;;;;;779.40;702.90;;;18.90;99.90;;;;;;5000124;28;20571;-83
2022/06/24 03:55:35;;;;;;;773.23;698.07;;;18.90;99.90;;;;;;5013701;28;20455;-83
2022/06/24 03:58:10;;;;;;;777.90;702.50;;;18.90;99.90;;;;;;5001383;28;20526;-83
2022/06/24 04:00:39;;;;;;;777.60;701.77;;;19.00;99.90;;;;;;4995932;28;20931;-83
2022/06/24 04:03:05;;;;;;;782.30;706.10;;;19.00;99.90;;;;;;5006536;28;20454;-81
2022/06/24 04:05:33;;;;;;;797.50;719.90;;;19.00;99.90;;;;;;5007100;28;20463;-83
2022/06/24 04:08:00;;;;;;;796.10;718.87;;;19.10;99.90;;;;;;5012119;28;20450;-82
2022/06/24 04:10:27;;;;;;;801.13;723.43;;;19.20;99.90;;;;;;5008905;28;20456;-81
2022/06/24 04:16:11;;;;;;;797.50;720.13;;;19.10;99.90;;;;;;5004447;28;20493;-83
2022/06/24 04:18:38;;;;;;;777.67;700.20;;;19.20;99.90;;;;;;5017583;28;20457;-82
2022/06/24 04:21:12;;;;;;;796.10;718.50;;;19.10;99.90;;;;;;5019025;28;20534;-82
2022/06/24 04:23:41;;;;;;;789.77;713.47;;;19.10;99.90;;;;;;5020785;28;20549;-82
2022/06/24 04:26:09;;;;;;;788.60;713.23;;;19.00;99.90;;;;;;5019367;28;20490;-82
2022/06/24 04:28:36;;;;;;;788.53;713.73;;;19.00;99.90;;;;;;4999295;28;20466;-82
2022/06/24 04:31:03;;;;;;;784.87;711.20;;;18.90;99.90;;;;;;5014165;28;20476;-82
2022/06/24 04:33:30;;;;;;;784.53;710.00;;;18.90;99.90;;;;;;5007039;28;20458;-81
2022/06/24 04:35:57;;;;;;;791.13;718.67;;;18.90;99.90;;;;;;5008265;28;20551;-81
2022/06/24 04:38:25;;;;;;;790.90;718.10;;;18.90;99.90;;;;;;5004025;28;20488;-81
2022/06/24 04:40:52;;;;;;;762.07;690.40;;;18.90;99.90;;;;;;5017673;28;20488;-81
2022/06/24 04:43:19;;;;;;;774.77;703.20;;;18.90;99.90;;;;;;5005365;28;20462;-81
2022/06/24 04:45:46;;;;;;;776.57;703.20;;;18.90;99.90;;;;;;5019660;28;20462;-81
2022/06/24 04:48:13;;;;;;;770.77;699.00;;;19.00;99.90;;;;;;5008981;28;20459;-81
2022/06/24 04:50:40;;;;;;;776.80;707.13;;;19.00;99.90;;;;;;5015129;28;20495;-81
2022/06/24 04:53:07;;;;;;;772.97;701.83;;;19.00;99.90;;;;;;5015534;28;20476;-82
2022/06/24 04:55:35;;;;;;;775.27;704.10;;;19.00;99.90;;;;;;5017370;28;20457;-81
2022/06/24 04:58:02;;;;;;;789.77;717.80;;;19.00;99.90;;;;;;5013315;28;20455;-81
2022/06/24 05:00:29;;;;;;;775.77;703.70;;;18.90;99.90;;;;;;5005842;28;20451;-82
2022/06/24 05:02:56;;;;;;;788.37;714.47;;;19.00;99.90;;;;;;5022294;28;20478;-81
2022/06/24 05:05:23;;;;;;;779.40;707.00;;;19.00;99.90;;;;;;5023044;28;20454;-81
2022/06/24 05:07:49;;;;;;;761.53;691.10;;;19.00;99.90;;;;;;5013707;28;20431;-81
2022/06/24 05:10:16;;;;;;;780.37;707.97;;;19.00;99.90;;;;;;5014359;28;20459;-81
2022/06/24 05:12:52;;;;;;;772.80;702.87;;;18.90;99.90;;;;;;5023613;28;20476;-82
2022/06/24 05:15:18;;;;;;;758.17;689.67;;;19.00;99.90;;;;;;5001749;28;20511;-81
2022/06/24 05:17:45;;;;;;;758.77;690.13;;;19.00;99.90;;;;;;5018880;28;20452;-82
2022/06/24 05:20:12;;;;;;;771.33;701.67;;;18.90;99.90;;;;;;5011401;28;20542;-81
2022/06/24 05:22:39;;;;;;;773.57;703.77;;;18.90;99.90;;;;;;5019237;28;20479;-81
2022/06/24 05:25:07;;;;;;;774.27;704.77;;;18.90;99.90;;;;;;5007442;28;20446;-82
2022/06/24 05:27:34;;;;;;;782.17;712.13;;;18.90;99.90;;;;;;5010908;28;20511;-81
2022/06/24 05:30:03;;;;;;;778.83;710.10;;;18.90;99.90;;;;;;5003629;28;20460;-81
2022/06/24 05:32:29;;;;;;;778.23;710.27;;;18.90;99.90;;;;;;5003831;28;20495;-81
2022/06/24 05:34:57;;;;;;;784.13;716.00;;;18.80;99.90;;;;;;5012629;28;20455;-82
2022/06/24 05:37:24;;;;;;;775.10;706.97;;;18.90;99.90;;;;;;5018706;28;20503;-84
2022/06/24 05:39:53;;;;;;;779.37;710.17;;;18.80;99.90;;;;;;5000966;28;20459;-81
2022/06/24 05:42:19;;;;;;;784.13;713.20;;;18.80;99.90;;;;;;5001327;28;20486;-84
2022/06/24 05:44:46;;;;;;;812.07;739.67;;;18.80;99.90;;;;;;5017476;28;20459;-82
2022/06/24 05:47:14;;;;;;;906.43;832.50;;;18.80;99.90;;;;;;5003243;28;20837;-81
2022/06/24 05:49:41;;;;;;;924.37;850.70;;;18.80;99.90;;;;;;5001570;28;20458;-82
2022/06/24 05:52:08;;;;;;;892.40;815.43;;;18.80;99.90;;;;;;5018543;28;20463;-81
2022/06/24 05:55:44;;;;;;;;;;;;;;;;;;;;;
2022/06/24 06:02:27;;;;;;;877.07;795.07;;;18.90;99.90;;;;;;4766487;30;20237;-87
2022/06/24 06:05:35;;;;;;;871.47;789.97;;;19.10;99.90;;;;;;4767916;30;20472;-86
2022/06/24 06:14:53;;;;;;;812.97;734.17;;;19.20;99.90;;;;;;4854260;28;20465;-85
2022/06/24 06:17:19;;;;;;;810.73;731.23;;;19.20;99.90;;;;;;4998252;28;20494;-84
2022/06/24 06:19:49;;;;;;;796.50;717.83;;;19.20;99.90;;;;;;4999006;28;20839;-84
2022/06/24 06:22:23;;;;;;;804.73;725.70;;;19.30;99.90;;;;;;4996599;28;20493;-84
2022/06/24 06:24:55;;;;;;;787.70;709.90;;;19.30;99.90;;;;;;4995128;28;20544;-84
2022/06/24 06:27:32;;;;;;;790.43;713.17;;;19.30;99.90;;;;;;4994099;28;20483;-85
2022/06/24 06:30:03;;;;;;;786.07;708.67;;;19.20;99.90;;;;;;4994832;28;20454;-84
2022/06/24 06:32:34;;;;;;;791.80;714.67;;;19.20;99.90;;;;;;4997423;28;20486;-83
2022/06/24 06:37:54;;;;;;;779.53;705.00;;;19.10;99.90;;;;;;5002274;28;20463;-82
2022/06/24 06:40:25;;;;;;;888.90;813.00;;;19.00;99.90;;;;;;5001885;28;20547;-81
2022/06/24 06:42:55;;;;;;;829.03;752.87;;;19.00;99.90;;;;;;4997609;28;20533;-80
2022/06/24 06:45:22;;;;;;;886.37;811.50;;;18.90;99.90;;;;;;5005476;28;20904;-82
2022/06/24 06:47:49;;;;;;;845.23;776.60;;;18.80;99.90;;;;;;5005056;28;20475;-82
2022/06/24 06:50:15;;;;;;;815.83;748.07;;;18.40;99.90;;;;;;5000871;28;20820;-82
2022/06/24 06:52:42;;;;;;;835.27;762.67;;;18.10;99.90;;;;;;5001615;28;20450;-84
2022/06/24 06:55:10;;;;;;;800.47;731.87;;;18.70;99.90;;;;;;5002121;28;20467;-83
2022/06/24 06:57:37;;;;;;;810.20;741.30;;;18.90;99.90;;;;;;5002676;28;20454;-82
2022/06/24 07:00:23;;;;;;;838.37;766.93;;;18.60;99.90;;;;;;5003560;28;20459;-82
2022/06/24 07:02:50;;;;;;;838.00;766.43;;;18.30;99.90;;;;;;5001530;28;20479;-83
2022/06/24 07:05:54;;;;;;;864.77;790.83;;;18.20;99.90;;;;;;5001811;28;20455;-84
2022/06/24 07:08:23;;;;;;;855.13;780.63;;;19.10;99.90;;;;;;4999578;28;20833;-82
2022/06/24 07:10:51;;;;;;;835.10;760.50;;;18.50;99.90;;;;;;5000630;28;20487;-82
2022/06/24 07:13:19;;;;;;;850.50;774.20;;;18.10;99.90;;;;;;5000082;28;20446;-82
2022/06/24 07:15:46;;;;;;;870.77;793.07;;;19.20;99.90;;;;;;5002279;28;20474;-80
2022/06/24 07:21:02;;;;;;;838.97;764.87;;;18.30;99.90;;;;;;4939400;28;20484;-83
2022/06/24 07:23:32;;;;;;;846.40;769.70;;;18.20;99.90;;;;;;4992770;28;20483;-83
2022/06/24 07:26:04;;;;;;;805.77;735.77;;;18.70;99.90;;;;;;4992787;28;20465;-83
2022/06/24 07:28:36;;;;;;;848.83;776.47;;;18.90;99.90;;;;;;4992337;28;20835;-84
2022/06/24 07:31:15;;;;;;;801.50;737.20;;;18.40;99.90;;;;;;4996252;28;20554;-83
2022/06/24 07:33:42;;;;;;;809.90;744.07;;;18.90;99.90;;;;;;4996669;28;20450;-84
2022/06/24 07:36:09;;;;;;;824.07;755.40;;;18.20;99.90;;;;;;4996474;28;20504;-83
2022/06/24 07:42:06;;;;;;;861.30;783.47;;;18.50;99.90;;;;;;4992548;28;20560;-84
2022/06/24 07:48:12;;;;;;;866.93;791.63;;;18.90;99.90;;;;;;4993581;28;20458;-84
2022/06/24 08:02:02;;;;;;;814.63;742.47;;;19.60;99.90;;;;;;4994428;28;20532;-84
2022/06/24 08:08:33;;;;;;;784.33;718.03;;;19.80;99.90;;;;;;4970841;28;21076;-83
2022/06/24 08:14:48;;;;;;;773.67;706.27;;;19.60;99.90;;;;;;4994351;28;20459;-84
2022/06/24 08:20:37;;;;;;;766.40;698.07;;;19.70;99.90;;;;;;4964935;28;20508;-83
2022/06/24 08:23:31;;;;;;;748.30;686.30;;;20.00;99.90;;;;;;4986141;28;20480;-83
2022/06/24 08:26:43;;;;;;;732.47;674.73;;;19.20;99.90;;;;;;4996358;28;21008;-83
2022/06/24 08:29:27;;;;;;;737.03;679.30;;;19.60;99.90;;;;;;4998160;28;20459;-83
2022/06/24 08:32:15;;;;;;;698.77;649.10;;;19.80;99.90;;;;;;5001223;28;20487;-83
2022/06/24 08:34:47;;;;;;;690.13;643.20;;;19.50;99.90;;;;;;5001564;28;20478;-83
2022/06/24 08:37:34;;;;;;;681.97;639.07;;;18.90;99.90;;;;;;5003720;28;20458;-82
2022/06/24 08:40:19;;;;;;;;;;;;;;;;;;;;;
2022/06/24 08:42:52;;;;;;;673.77;632.47;;;19.40;99.90;;;;;;4998682;23;20490;-79
2022/06/24 08:45:19;;;;;;;686.23;642.43;;;19.00;99.90;;;;;;4978237;28;20455;-80
2022/06/24 08:47:47;;;;;;;714.77;665.00;;;19.50;99.90;;;;;;4979032;28;20459;-79
2022/06/24 08:50:14;;;;;;;724.30;670.27;;;19.50;99.90;;;;;;4977374;28;20465;-81
2022/06/24 08:52:46;;;;;;;738.53;683.23;;;19.90;99.90;;;;;;4992355;28;20468;-80
2022/06/24 08:55:17;;;;;;;729.40;674.73;;;19.80;99.90;;;;;;4997672;28;20458;-79
2022/06/24 08:57:44;;;;;;;725.30;669.38;;;19.90;99.90;;;;;;4997221;28;20539;-81
2022/06/24 09:00:13;;;;;;;710.33;658.97;;;20.10;99.90;;;;;;4996531;28;20199;-79
2022/06/24 09:02:40;;;;;;;724.87;673.90;;;19.50;99.90;;;;;;4997276;28;20492;-80
2022/06/24 09:05:09;;;;;;;720.23;668.13;;;19.50;99.90;;;;;;4996657;28;20455;-79
2022/06/24 09:07:36;;;;;;;717.33;666.40;;;19.80;99.90;;;;;;4996354;28;20458;-79
2022/06/24 09:10:06;;;;;;;721.40;670.30;;;20.30;99.90;;;;;;4997053;28;20466;-80
2022/06/24 09:12:38;;;;;;;693.50;646.70;;;20.70;99.90;;;;;;4998307;28;20473;-79
2022/06/24 09:15:06;;;;;;;672.30;633.03;;;20.40;99.90;;;;;;4998774;28;20966;-81
2022/06/24 09:17:35;;;;;;;688.43;647.83;;;20.80;99.90;;;;;;5005810;28;20460;-79
2022/06/24 09:20:14;;;;;;;633.23;604.33;;;21.00;99.90;;;;;;5006045;28;20454;-78
2022/06/24 09:22:41;;;;;;;668.50;636.00;;;21.20;99.90;;;;;;5006654;28;20484;-79
2022/06/24 09:25:08;;;;;;;565.40;542.73;;;21.70;99.90;;;;;;5006796;28;20459;-79
2022/06/24 09:27:36;;;;;;;77.90;74.80;;;21.70;99.90;;;;;;5006818;28;20535;-80
2022/06/24 09:30:03;;;;;;;124.87;120.37;;;21.90;99.90;;;;;;5005860;28;20457;-80
2022/06/24 09:32:29;;;;;;;28.53;26.87;;;22.30;99.90;;;;;;5006463;28;20489;-80
2022/06/24 09:35:03;;;;;;;8.10;6.60;;;22.80;99.90;;;;;;5007158;28;20458;-80
2022/06/24 09:37:41;;;;;;;12.17;5.30;;;22.60;99.90;;;;;;5005401;28;20450;-80
2022/06/24 09:40:23;;;;;;;10.43;6.17;;;22.00;99.90;;;;;;5006114;28;20458;-80
2022/06/24 09:42:55;;;;;;;8.00;5.60;;;22.20;99.90;;;;;;5004461;28;20869;-80
2022/06/24 09:45:23;;;;;;;9.47;5.10;;;22.60;99.90;;;;;;5006740;28;20454;-80
2022/06/24 09:47:51;;;;;;;8.60;5.40;;;23.60;99.90;;;;;;5006124;28;20454;-80
2022/06/24 09:50:21;;;;;;;8.10;5.43;;;24.30;99.90;;;;;;5003361;28;20459;-80
2022/06/24 09:52:49;;;;;;;8.63;4.53;;;24.50;99.90;;;;;;5006325;28;20469;-81
2022/06/24 09:55:17;;;;;;;10.00;4.80;;;25.70;99.90;;;;;;5007270;28;20461;-81
2022/06/24 09:57:44;;;;;;;7.63;3.70;;;25.60;99.90;;;;;;5003718;28;20461;-81
2022/06/24 10:02:58;;;;;;;5.97;3.77;;;24.30;99.90;;;;;;5005584;28;20476;-81
2022/06/24 10:05:29;;;;;;;8.93;3.90;;;24.30;99.90;;;;;;5006453;28;20828;-81
2022/06/24 10:07:57;;;;;;;6.60;3.70;;;24.20;99.90;;;;;;5011271;28;20526;-82
2022/06/24 10:10:26;;;;;;;7.37;3.23;;;25.20;99.90;;;;;;5009954;28;20454;-83
2022/06/24 10:13:01;;;;;;;5.07;2.63;;;26.20;99.90;;;;;;5009354;28;20484;-83
2022/06/24 10:15:28;;;;;;;10.87;3.27;;;25.90;99.90;;;;;;5010529;28;20424;-83
2022/06/24 10:18:10;;;;;;;6.10;3.20;;;26.00;99.90;;;;;;5007019;28;20871;-83
2022/06/24 10:20:43;;;;;;;6.17;3.10;;;25.70;99.90;;;;;;5003024;28;20452;-86
2022/06/24 10:23:24;;;;;;;8.30;3.50;;;26.00;99.90;;;;;;4999152;28;20818;-86
2022/06/24 10:25:53;;;;;;;6.40;3.13;;;26.30;99.90;;;;;;4999336;28;20462;-86
2022/06/24 10:28:20;;;;;;;6.60;3.33;;;26.60;99.90;;;;;;4999023;28;20453;-85
2022/06/24 10:31:04;;;;;;;12.67;3.50;;;26.40;99.90;;;;;;4997498;28;20453;-85
2022/06/24 10:33:31;;;;;;;8.03;3.80;;;26.60;99.90;;;;;;4997188;28;20451;-85
2022/06/24 10:36:01;;;;;;;7.27;3.80;;;26.00;99.90;;;;;;4998107;28;20454;-85
2022/06/24 10:38:39;;;;;;;7.07;4.30;;;26.10;99.90;;;;;;4997103;28;20462;-85
2022/06/24 10:41:07;;;;;;;5.37;3.30;;;27.70;93.40;;;;;;4997245;28;20432;-85
2022/06/24 10:43:39;;;;;;;8.00;3.83;;;28.60;77.20;;;;;;4997384;28;20787;-83
2022/06/24 10:46:19;;;;;;;6.33;4.37;;;28.70;69.60;;;;;;4997982;28;20886;-81
2022/06/24 10:49:06;;;;;;;9.60;4.43;;;29.40;59.00;;;;;;4996701;28;20453;-82
2022/06/24 10:51:34;;;;;;;6.20;3.77;;;29.70;52.40;;;;;;4998960;28;20858;-84
2022/06/24 10:54:16;;;;;;;8.70;4.13;;;29.60;47.90;;;;;;5000340;28;20545;-83
2022/06/24 10:56:46;;;;;;;11.43;4.27;;;31.00;43.50;;;;;;5000857;28;20838;-84
2022/06/24 10:59:14;;;;;;;6.33;3.40;;;32.20;39.40;;;;;;4998636;28;20450;-83
2022/06/24 11:01:43;;;;;;;5.63;3.43;;;32.40;33.60;;;;;;4997441;28;20973;-83
2022/06/24 11:04:13;;;;;;;9.27;3.47;;;31.60;27.60;;;;;;4997045;28;20484;-83
2022/06/24 11:07:09;;;;;;;6.93;3.20;;;31.20;29.90;;;;;;4997612;28;20424;-83
2022/06/24 11:09:36;;;;;;;5.90;3.00;;;29.80;30.40;;;;;;4997152;28;20436;-82
2022/06/24 11:12:03;;;;;;;7.83;2.70;;;29.50;37.40;;;;;;4997799;28;20473;-83
2022/06/24 11:14:30;;;;;;;5.23;2.20;;;29.00;32.90;;;;;;4994988;28;20481;-81
2022/06/24 11:16:56;;;;;;;5.07;2.23;;;28.90;32.60;;;;;;4996462;28;20457;-83
2022/06/24 11:19:23;;;;;;;4.93;1.83;;;28.60;31.10;;;;;;4997186;28;20460;-82
2022/06/24 11:21:52;;;;;;;5.50;2.13;;;28.90;26.70;;;;;;4994961;28;20477;-84
2022/06/24 11:24:20;;;;;;;5.90;2.27;;;28.90;27.40;;;;;;4995997;28;20435;-83
2022/06/24 11:27:06;;;;;;;5.17;2.40;;;29.10;26.90;;;;;;4996255;28;20465;-83
2022/06/24 11:29:52;;;;;;;5.57;1.60;;;28.30;26.50;;;;;;4995112;28;20454;-83
2022/06/24 11:32:19;;;;;;;7.80;2.60;;;27.40;26.40;;;;;;4996150;28;20526;-83
2022/06/24 11:34:48;;;;;;;5.40;2.23;;;27.20;29.80;;;;;;4996105;28;21029;-83
2022/06/24 11:37:22;;;;;;;5.67;2.10;;;27.00;32.10;;;;;;5015018;28;20461;-83
2022/06/24 11:39:52;;;;;;;6.90;1.87;;;27.00;35.70;;;;;;5014821;28;20980;-83
2022/06/24 11:42:18;;;;;;;5.33;2.50;;;27.10;38.10;;;;;;5015886;28;20504;-83
2022/06/24 11:44:45;;;;;;;4.90;2.20;;;26.90;35.00;;;;;;5013944;28;20953;-82
2022/06/24 11:47:12;;;;;;;7.43;2.70;;;27.10;41.40;;;;;;5015414;28;20420;-83
2022/06/24 11:49:42;;;;;;;5.87;2.40;;;27.40;39.50;;;;;;5014540;28;20461;-83
2022/06/24 11:52:09;;;;;;;7.27;2.53;;;27.50;34.70;;;;;;5015202;28;20473;-83
2022/06/24 11:54:37;;;;;;;8.63;2.40;;;28.00;32.80;;;;;;5015666;28;20861;-83
2022/06/24 11:57:09;;;;;;;8.37;2.50;;;29.60;33.90;;;;;;5015857;28;20449;-83
2022/06/24 11:59:37;;;;;;;8.20;2.20;;;30.90;22.50;;;;;;5014894;28;20457;-83
2022/06/24 12:02:07;;;;;;;6.40;2.30;;;31.00;19.10;;;;;;5014761;28;20473;-83
2022/06/24 12:04:34;;;;;;;4.50;2.07;;;31.90;19.60;;;;;;5015280;28;20472;-84
2022/06/24 12:07:03;;;;;;;4.83;2.10;;;32.30;14.20;;;;;;5015206;28;20457;-83
2022/06/24 12:09:30;;;;;;;6.40;2.93;;;32.80;12.40;;;;;;5014407;28;20439;-84
2022/06/24 12:12:09;;;;;;;5.97;2.73;;;32.40;15.10;;;;;;5015328;28;20964;-83
2022/06/24 12:14:35;;;;;;;6.87;2.47;;;33.30;12.70;;;;;;5014663;28;20474;-83
2022/06/24 12:17:06;;;;;;;5.87;2.50;;;31.90;17.00;;;;;;5017765;28;20459;-83
2022/06/24 12:19:36;;;;;;;7.40;2.43;;;30.90;16.30;;;;;;5018207;28;20480;-83
2022/06/24 12:22:07;;;;;;;5.00;2.47;;;32.00;14.60;;;;;;5018393;28;20447;-84
2022/06/24 12:24:35;;;;;;;6.97;2.87;;;31.70;11.80;;;;;;5018424;28;20968;-83
2022/06/24 12:27:06;;;;;;;6.30;3.00;;;31.90;11.90;;;;;;5017922;28;20427;-83
2022/06/24 12:29:34;;;;;;;4.80;1.83;;;33.00;9.20;;;;;;5018112;28;20511;-83
2022/06/24 12:32:03;;;;;;;4.87;2.20;;;33.10;6.90;;;;;;5017812;28;20455;-83
2022/06/24 12:34:31;;;;;;;7.10;2.37;;;32.50;9.30;;;;;;5018792;28;20540;-84
2022/06/24 12:37:00;;;;;;;5.63;2.40;;;32.50;9.30;;;;;;5018409;28;20427;-83
2022/06/24 12:39:32;;;;;;;6.10;2.50;;;31.80;7.10;;;;;;5017868;28;20453;-85
2022/06/24 12:41:58;;;;;;;5.80;3.13;;;31.80;5.70;;;;;;5017544;28;20600;-80
2022/06/24 12:44:30;;;;;;;8.63;2.97;;;31.30;7.20;;;;;;5018201;28;20483;-83
2022/06/24 12:52:38;;;;;;;6.10;2.50;;;33.30;4.80;;;;;;5017080;28;20446;-83
2022/06/24 12:55:07;;;;;;;6.93;2.23;;;33.00;4.60;;;;;;5016922;28;20584;-82
2022/06/24 12:57:33;;;;;;;7.00;2.53;;;33.10;1.00;;;;;;5017869;28;20457;-83
2022/06/24 13:00:04;;;;;;;7.47;2.00;;;34.90;1.00;;;;;;5016634;28;20423;-83
2022/06/24 13:02:30;;;;;;;4.63;2.13;;;35.40;1.00;;;;;;5017541;28;20833;-83
2022/06/24 13:04:57;;;;;;;7.70;1.73;;;35.20;1.00;;;;;;5017365;28;20941;-82
2022/06/24 13:07:24;;;;;;;5.17;2.27;;;33.30;1.00;;;;;;5017133;28;20431;-83
2022/06/24 13:09:51;;;;;;;7.63;2.40;;;32.80;1.30;;;;;;5017642;28;20457;-83
2022/06/24 13:12:17;;;;;;;5.77;2.17;;;31.90;1.00;;;;;;5018458;28;20480;-83
2022/06/24 13:14:44;;;;;;;6.93;2.90;;;31.00;5.00;;;;;;5018480;28;20452;-83
2022/06/24 13:17:12;;;;;;;5.97;2.40;;;30.90;6.90;;;;;;5017944;28;20827;-82
2022/06/24 13:19:39;;;;;;;4.67;1.90;;;31.20;7.40;;;;;;5016458;28;20461;-83
2022/06/24 13:22:06;;;;;;;5.30;1.80;;;30.60;7.40;;;;;;5017096;28;20477;-83
2022/06/24 13:24:34;;;;;;;7.80;3.80;;;30.40;11.30;;;;;;5016993;28;20461;-82
2022/06/24 13:27:03;;;;;;;6.57;2.43;;;29.90;11.50;;;;;;5016278;28;20457;-83
2022/06/24 13:29:30;;;;;;;6.97;2.07;;;30.70;8.60;;;;;;5017491;28;20483;-83
2022/06/24 13:31:56;;;;;;;5.60;2.33;;;31.80;6.90;;;;;;5016982;28;20869;-83
2022/06/24 13:34:25;;;;;;;6.30;2.20;;;31.50;4.90;;;;;;5019525;28;20484;-85
2022/06/24 13:36:52;;;;;;;5.80;1.87;;;32.20;2.40;;;;;;5017967;28;20455;-84
2022/06/24 13:39:19;;;;;;;6.27;2.33;;;32.40;1.00;;;;;;5017322;28;20456;-85
2022/06/24 13:41:47;;;;;;;4.57;2.00;;;32.00;1.00;;;;;;5019506;28;20556;-86
2022/06/24 13:44:14;;;;;;;7.57;2.60;;;31.80;3.70;;;;;;5018156;28;20456;-84
2022/06/24 13:46:41;;;;;;;6.63;2.63;;;31.40;1.90;;;;;;5019549;28;20452;-86
2022/06/24 13:49:08;;;;;;;6.60;2.10;;;31.30;3.70;;;;;;5021211;28;20456;-86
2022/06/24 13:51:36;;;;;;;5.17;1.90;;;31.10;3.60;;;;;;5022519;28;20481;-85
2022/06/24 13:54:03;;;;;;;7.60;2.13;;;31.30;3.70;;;;;;5021499;28;20484;-85
2022/06/24 13:56:31;;;;;;;4.30;1.90;;;32.20;4.20;;;;;;5020928;28;20453;-86
2022/06/24 13:58:57;;;;;;;5.07;2.00;;;32.00;1.00;;;;;;5020147;28;20432;-85
2022/06/24 14:01:24;;;;;;;7.10;1.63;;;32.40;1.00;;;;;;5020778;28;20477;-85
2022/06/24 14:03:51;;;;;;;4.43;1.57;;;33.50;1.00;;;;;;5018951;28;20454;-86
2022/06/24 14:06:17;;;;;;;4.97;2.10;;;34.70;1.00;;;;;;5016232;28;20453;-86
2022/06/24 14:08:46;;;;;;;5.67;1.70;;;35.60;1.00;;;;;;5015000;28;20428;-86
2022/06/24 14:11:13;;;;;;;4.13;1.60;;;37.40;1.00;;;;;;5017006;28;20424;-86
2022/06/24 14:13:40;;;;;;;6.07;1.80;;;37.80;1.00;;;;;;5015543;28;20485;-86
2022/06/24 14:16:07;;;;;;;6.03;2.00;;;37.10;1.00;;;;;;5015212;28;20912;-86
2022/06/24 14:18:35;;;;;;;4.60;1.73;;;35.30;1.00;;;;;;5016973;28;20439;-85
2022/06/24 14:21:03;;;;;;;4.73;1.60;;;35.50;1.00;;;;;;5018369;28;20428;-85
2022/06/24 14:26:15;;;;;;;5.80;2.10;;;32.40;1.00;;;;;;5020202;28;20460;-85
2022/06/24 14:28:42;;;;;;;4.93;1.90;;;30.70;1.00;;;;;;5017953;28;20961;-84
2022/06/24 14:31:09;;;;;;;4.93;1.87;;;30.00;1.70;;;;;;5019958;28;20460;-85
2022/06/24 14:33:35;;;;;;;4.67;1.70;;;29.40;3.70;;;;;;5020478;28;20460;-85
2022/06/24 14:36:02;;;;;;;4.60;1.60;;;29.00;9.00;;;;;;5020405;28;20431;-85